createdAt,value
2022-10-10T00:00:36.312Z,99444.28
2022-10-10T00:01:40.483Z,99450.16
2022-10-10T00:02:43.548Z,99442.25
2022-10-10T00:03:47.603Z,99442.13
2022-10-10T00:04:53.209Z,99441.13
2022-10-10T00:05:58.730Z,99434.97
2022-10-10T00:07:01.723Z,99438.31
2022-10-10T00:08:08.535Z,99437.34
2022-10-10T00:09:11.706Z,99437.25
2022-10-10T00:10:15.777Z,99432.00
2022-10-10T00:11:21.550Z,99425.94
2022-10-10T00:12:25.816Z,99430.88
2022-10-10T00:13:28.965Z,99425.66
2022-10-10T00:14:33.236Z,99432.50
2022-10-10T00:15:36.274Z,99431.56
2022-10-10T00:16:40.427Z,99434.91
2022-10-10T00:17:44.066Z,99432.31
2022-10-10T00:18:48.197Z,99428.03
2022-10-10T00:19:51.241Z,99433.13
2022-10-10T00:20:55.408Z,99426.09
2022-10-10T00:21:59.856Z,99421.75
2022-10-10T00:23:04.017Z,99424.28
2022-10-10T00:24:07.508Z,99419.88
2022-10-10T00:25:12.345Z,99423.22
2022-10-10T00:26:18.906Z,99429.25
2022-10-10T00:27:23.653Z,99418.81
2022-10-10T00:28:26.763Z,99419.56
2022-10-10T00:29:30.886Z,99428.13
2022-10-10T00:30:33.825Z,99423.69
2022-10-10T00:31:37.986Z,99407.34
2022-10-10T00:32:41.011Z,99420.34
2022-10-10T00:33:45.217Z,99420.34
2022-10-10T00:34:48.367Z,99408.31
2022-10-10T00:35:52.504Z,99409.22
2022-10-10T00:36:55.472Z,99411.81
2022-10-10T00:38:01.084Z,99409.16
2022-10-10T00:39:04.294Z,99411.75
2022-10-10T00:40:09.596Z,99410.00
2022-10-10T00:41:12.892Z,99406.59
2022-10-10T00:42:18.566Z,99409.22
2022-10-10T00:43:22.271Z,99410.88
2022-10-10T00:44:28.058Z,99401.47
2022-10-10T00:45:37.123Z,99405.81
2022-10-10T00:46:42.077Z,99395.44
2022-10-10T00:47:45.149Z,99396.38
2022-10-10T00:48:49.326Z,99391.13
2022-10-10T00:49:52.358Z,99392.88
2022-10-10T00:50:58.977Z,99388.59
2022-10-10T00:52:02.155Z,99391.28
2022-10-10T00:53:08.995Z,99393.88
2022-10-10T00:54:13.408Z,99384.50
2022-10-10T00:55:18.544Z,99387.09
2022-10-10T00:56:27.219Z,99373.41
2022-10-10T00:57:30.209Z,99385.41
2022-10-10T00:58:35.647Z,99383.75
2022-10-10T00:59:40.537Z,99379.41
2022-10-10T01:00:44.937Z,99376.03
2022-10-10T01:01:48.415Z,99379.63
2022-10-10T01:02:53.059Z,99384.88
2022-10-10T01:03:58.373Z,99375.38
2022-10-10T01:05:02.385Z,99371.88
2022-10-10T01:06:06.265Z,99380.53
2022-10-10T01:07:13.163Z,99381.47
2022-10-10T01:08:18.364Z,99375.44
2022-10-10T01:09:22.593Z,99378.19
2022-10-10T01:10:26.029Z,99376.56
2022-10-10T01:11:52.478Z,99373.22
2022-10-10T01:13:04.563Z,99372.63
2022-10-10T01:14:18.125Z,99365.91
2022-10-10T01:15:26.804Z,99373.88
2022-10-10T01:16:37.357Z,99370.78
2022-10-10T01:17:45.493Z,99369.41
2022-10-10T01:18:56.607Z,99373.97
2022-10-10T01:20:33.275Z,99369.13
2022-10-10T01:21:40.413Z,99362.66
2022-10-10T01:22:53.473Z,99361.13
2022-10-10T01:24:42.436Z,99354.78
2022-10-10T01:25:58.354Z,99353.59
2022-10-10T01:27:37.436Z,99356.47
2022-10-10T01:28:45.974Z,99350.81
2022-10-10T01:29:53.474Z,99353.63
2022-10-10T01:30:57.132Z,99353.75
2022-10-10T01:32:06.326Z,99353.94
2022-10-10T01:33:27.345Z,99354.06
2022-10-10T01:34:35.975Z,99353.47
2022-10-10T01:35:49.082Z,99350.31
2022-10-10T01:36:58.200Z,99347.94
2022-10-10T01:38:08.800Z,99346.47
2022-10-10T01:39:21.080Z,99347.56
2022-10-10T01:40:31.247Z,99347.84
2022-10-10T01:41:39.306Z,99344.63
2022-10-10T01:42:48.399Z,99347.41
2022-10-10T01:43:55.233Z,99344.19
2022-10-10T01:44:59.340Z,99351.19
2022-10-10T01:46:10.261Z,99343.69
2022-10-10T01:47:15.042Z,99338.56
2022-10-10T01:48:22.372Z,99337.88
2022-10-10T01:49:30.470Z,99334.59
2022-10-10T01:50:37.788Z,99341.53
2022-10-10T01:51:50.787Z,99338.28
2022-10-10T01:53:04.152Z,99336.72
2022-10-10T01:54:18.487Z,99330.84
2022-10-10T01:55:32.840Z,99335.31
2022-10-10T01:56:40.916Z,99337.25
2022-10-10T01:57:51.823Z,99335.69
2022-10-10T01:59:14.653Z,99328.84
2022-10-10T02:00:18.812Z,99339.28
2022-10-10T02:01:27.770Z,99330.00
2022-10-10T02:02:40.809Z,99323.25
2022-10-10T02:03:47.416Z,99324.19
2022-10-10T02:04:54.185Z,99320.84
2022-10-10T02:06:02.190Z,99322.63
2022-10-10T02:07:08.852Z,99323.53
2022-10-10T02:08:16.956Z,99323.59
2022-10-10T02:09:23.772Z,99334.91
2022-10-10T02:10:29.955Z,99328.94
2022-10-10T02:11:34.802Z,99328.19
2022-10-10T02:12:40.026Z,99331.66
2022-10-10T02:13:45.804Z,99333.44
2022-10-10T02:14:53.225Z,99330.88
2022-10-10T02:15:58.320Z,99330.09
2022-10-10T02:17:02.816Z,99331.06
2022-10-10T02:18:07.044Z,99327.72
2022-10-10T02:19:13.632Z,99329.50
2022-10-10T02:20:20.511Z,99334.72
2022-10-10T02:21:26.250Z,99322.75
2022-10-10T02:22:30.470Z,99327.91
2022-10-10T02:23:35.763Z,99327.13
2022-10-10T02:24:38.914Z,99326.34
2022-10-10T02:25:43.463Z,99323.81
2022-10-10T02:26:50.195Z,99321.44
2022-10-10T02:28:01.316Z,99325.81
2022-10-10T02:29:06.831Z,99325.09
2022-10-10T02:30:14.293Z,99323.47
2022-10-10T02:31:21.512Z,99327.00
2022-10-10T02:32:33.749Z,99327.06
2022-10-10T02:33:44.915Z,99325.50
2022-10-10T02:34:51.038Z,99324.72
2022-10-10T02:35:55.224Z,99334.19
2022-10-10T02:37:00.930Z,99321.44
2022-10-10T02:38:06.275Z,99328.34
2022-10-10T02:39:10.575Z,99330.94
2022-10-10T02:40:17.942Z,99319.03
2022-10-10T02:41:22.830Z,99320.81
2022-10-10T02:42:27.246Z,99324.28
2022-10-10T02:43:32.619Z,99323.47
2022-10-10T02:44:35.985Z,99326.03
2022-10-10T02:45:42.103Z,99318.31
2022-10-10T02:46:45.792Z,99324.28
2022-10-10T02:47:49.782Z,99326.88
2022-10-10T02:48:53.339Z,99317.53
2022-10-10T02:49:57.609Z,99318.47
2022-10-10T02:51:00.801Z,99316.81
2022-10-10T02:52:05.668Z,99313.41
2022-10-10T02:53:09.461Z,99315.91
2022-10-10T02:54:13.488Z,99315.75
2022-10-10T02:55:17.517Z,99317.38
2022-10-10T02:56:22.281Z,99316.47
2022-10-10T02:57:25.274Z,99315.56
2022-10-10T02:58:29.345Z,99313.00
2022-10-10T02:59:32.511Z,99311.25
2022-10-10T03:00:36.652Z,99307.06
2022-10-10T03:01:41.325Z,99304.59
2022-10-10T03:02:46.401Z,99307.25
2022-10-10T03:03:49.529Z,99308.19
2022-10-10T03:04:53.589Z,99302.28
2022-10-10T03:05:56.551Z,99304.13
2022-10-10T03:07:00.592Z,99305.91
2022-10-10T03:08:05.891Z,99311.97
2022-10-10T03:09:13.322Z,99305.19
2022-10-10T03:10:16.411Z,99304.34
2022-10-10T03:11:20.445Z,99301.88
2022-10-10T03:12:23.441Z,99308.78
2022-10-10T03:13:27.613Z,99301.06
2022-10-10T03:14:31.029Z,99300.28
2022-10-10T03:15:34.958Z,99302.91
2022-10-10T03:16:37.953Z,99299.63
2022-10-10T03:17:43.424Z,99300.53
2022-10-10T03:18:46.950Z,99300.56
2022-10-10T03:19:51.212Z,99297.22
2022-10-10T03:20:56.257Z,99294.69
2022-10-10T03:22:00.371Z,99292.16
2022-10-10T03:23:03.625Z,99292.22
2022-10-10T03:24:08.173Z,99291.41
2022-10-10T03:25:11.140Z,99283.75
2022-10-10T03:26:15.261Z,99288.88
2022-10-10T03:27:18.311Z,99282.06
2022-10-10T03:28:22.815Z,99285.47
2022-10-10T03:29:25.881Z,99276.13
2022-10-10T03:30:30.056Z,99280.50
2022-10-10T03:31:33.379Z,99273.72
2022-10-10T03:32:37.543Z,99280.69
2022-10-10T03:33:41.932Z,99276.44
2022-10-10T03:34:46.349Z,99285.88
2022-10-10T03:35:49.829Z,99280.78
2022-10-10T03:36:53.981Z,99282.50
2022-10-10T03:37:57.091Z,99279.03
2022-10-10T03:39:01.142Z,99281.59
2022-10-10T03:40:04.569Z,99281.59
2022-10-10T03:41:08.699Z,99276.47
2022-10-10T03:42:11.660Z,99277.38
2022-10-10T03:43:16.944Z,99277.38
2022-10-10T03:44:19.884Z,99276.47
2022-10-10T03:45:24.092Z,99279.88
2022-10-10T03:46:27.038Z,99283.34
2022-10-10T03:47:31.129Z,99286.75
2022-10-10T03:48:34.330Z,99279.03
2022-10-10T03:49:39.867Z,99278.19
2022-10-10T03:50:43.175Z,99277.38
2022-10-10T03:51:47.203Z,99274.78
2022-10-10T03:52:50.397Z,99280.00
2022-10-10T03:53:56.051Z,99281.75
2022-10-10T03:54:59.052Z,99280.09
2022-10-10T03:56:03.071Z,99278.50
2022-10-10T03:57:06.089Z,99278.56
2022-10-10T03:58:10.254Z,99278.59
2022-10-10T03:59:13.392Z,99277.00
2022-10-10T04:00:17.441Z,99278.75
2022-10-10T04:01:20.416Z,99282.25
2022-10-10T04:02:24.539Z,99271.19
2022-10-10T04:03:27.772Z,99278.06
2022-10-10T04:04:32.226Z,99269.53
2022-10-10T04:05:37.860Z,99269.59
2022-10-10T04:06:41.868Z,99278.16
2022-10-10T04:07:44.781Z,99278.09
2022-10-10T04:08:48.879Z,99273.69
2022-10-10T04:09:51.997Z,99275.31
2022-10-10T04:10:57.137Z,99273.47
2022-10-10T04:12:00.172Z,99264.81
2022-10-10T04:13:04.371Z,99270.66
2022-10-10T04:14:07.410Z,99267.91
2022-10-10T04:15:12.414Z,99268.75
2022-10-10T04:16:15.822Z,99264.50
2022-10-10T04:17:19.832Z,99264.50
2022-10-10T04:18:23.723Z,99262.91
2022-10-10T04:19:27.923Z,99267.22
2022-10-10T04:20:30.921Z,99263.00
2022-10-10T04:21:37.052Z,99261.34
2022-10-10T04:22:40.052Z,99264.81
2022-10-10T04:23:44.724Z,99257.13
2022-10-10T04:24:48.538Z,99257.13
2022-10-10T04:25:54.180Z,99264.00
2022-10-10T04:26:57.761Z,99264.06
2022-10-10T04:28:02.186Z,99252.94
2022-10-10T04:29:05.870Z,99259.00
2022-10-10T04:30:10.810Z,99261.59
2022-10-10T04:31:14.008Z,99250.47
2022-10-10T04:32:17.990Z,99257.34
2022-10-10T04:33:21.276Z,99250.53
2022-10-10T04:34:25.304Z,99254.00
2022-10-10T04:35:28.462Z,99252.34
2022-10-10T04:36:32.703Z,99252.34
2022-10-10T04:37:37.678Z,99256.69
2022-10-10T04:38:42.026Z,99259.25
2022-10-10T04:39:45.066Z,99251.59
2022-10-10T04:40:50.131Z,99257.59
2022-10-10T04:41:53.167Z,99252.50
2022-10-10T04:42:57.368Z,99257.69
2022-10-10T04:44:00.677Z,99260.25
2022-10-10T04:45:05.125Z,99257.69
2022-10-10T04:46:08.231Z,99256.00
2022-10-10T04:47:13.222Z,99252.59
2022-10-10T04:48:16.348Z,99252.66
2022-10-10T04:49:20.315Z,99254.41
2022-10-10T04:50:23.932Z,99259.59
2022-10-10T04:51:28.656Z,99254.56
2022-10-10T04:52:31.690Z,99253.78
2022-10-10T04:53:37.595Z,99259.03
2022-10-10T04:54:40.945Z,99248.00
2022-10-10T04:55:45.713Z,99258.28
2022-10-10T04:56:48.863Z,99255.78
2022-10-10T04:57:52.918Z,99260.94
2022-10-10T04:58:55.910Z,99262.66
2022-10-10T04:59:59.941Z,99260.03
2022-10-10T05:01:04.478Z,99253.22
2022-10-10T05:02:08.578Z,99250.66
2022-10-10T05:03:12.845Z,99263.50
2022-10-10T05:04:17.052Z,99258.38
2022-10-10T05:05:20.031Z,99253.22
2022-10-10T05:06:24.070Z,99255.06
2022-10-10T05:07:27.040Z,99245.59
2022-10-10T05:08:31.034Z,99255.06
2022-10-10T05:09:36.029Z,99252.50
2022-10-10T05:10:40.731Z,99249.91
2022-10-10T05:11:43.721Z,99252.50
2022-10-10T05:12:47.886Z,99255.06
2022-10-10T05:13:51.201Z,99255.03
2022-10-10T05:14:55.321Z,99252.38
2022-10-10T05:15:58.292Z,99254.91
2022-10-10T05:17:02.599Z,99251.44
2022-10-10T05:18:05.913Z,99255.72
2022-10-10T05:19:09.921Z,99248.00
2022-10-10T05:20:12.933Z,99249.66
2022-10-10T05:21:16.971Z,99249.53
2022-10-10T05:22:19.910Z,99251.16
2022-10-10T05:23:24.283Z,99247.63
2022-10-10T05:24:27.330Z,99252.59
2022-10-10T05:25:32.863Z,99250.78
2022-10-10T05:26:38.655Z,99257.50
2022-10-10T05:27:46.408Z,99245.41
2022-10-10T05:28:49.374Z,99249.59
2022-10-10T05:29:53.643Z,99248.56
2022-10-10T05:30:56.591Z,99247.47
2022-10-10T05:32:00.613Z,99246.25
2022-10-10T05:33:03.534Z,99246.88
2022-10-10T05:34:07.558Z,99247.38
2022-10-10T05:35:10.554Z,99244.19
2022-10-10T05:36:15.114Z,99249.59
2022-10-10T05:37:18.354Z,99247.16
2022-10-10T05:38:22.354Z,99242.53
2022-10-10T05:39:25.539Z,99247.38
2022-10-10T05:40:29.634Z,99246.94
2022-10-10T05:41:34.376Z,99246.31
2022-10-10T05:42:38.425Z,99244.66
2022-10-10T05:43:41.568Z,99244.59
2022-10-10T05:44:45.571Z,99236.81
2022-10-10T05:45:48.573Z,99240.19
2022-10-10T05:46:52.725Z,99240.84
2022-10-10T05:47:55.854Z,99238.09
2022-10-10T05:48:59.881Z,99241.41
2022-10-10T05:50:02.760Z,99242.09
2022-10-10T05:51:08.779Z,99240.22
2022-10-10T05:52:11.740Z,99246.22
2022-10-10T05:53:15.862Z,99251.28
2022-10-10T05:54:19.962Z,99250.34
2022-10-10T05:55:23.158Z,99253.81
2022-10-10T05:56:27.252Z,99250.50
2022-10-10T05:57:31.761Z,99248.03
2022-10-10T05:58:35.884Z,99249.09
2022-10-10T05:59:38.804Z,99246.91
2022-10-10T06:00:42.879Z,99244.00
2022-10-10T06:01:45.949Z,99247.84
2022-10-10T06:02:50.423Z,99241.91
2022-10-10T06:03:56.235Z,99238.53
2022-10-10T06:05:00.300Z,99245.53
2022-10-10T06:06:03.751Z,99252.38
2022-10-10T06:07:07.744Z,99245.38
2022-10-10T06:08:12.322Z,99239.94
2022-10-10T06:09:16.730Z,99244.06
2022-10-10T06:10:19.922Z,99244.78
2022-10-10T06:11:26.190Z,99241.16
2022-10-10T06:12:29.217Z,99242.75
2022-10-10T06:13:35.108Z,99235.03
2022-10-10T06:14:38.162Z,99247.03
2022-10-10T06:15:43.060Z,99246.25
2022-10-10T06:16:46.353Z,99250.59
2022-10-10T06:17:50.364Z,99245.34
2022-10-10T06:18:53.975Z,99249.56
2022-10-10T06:19:58.105Z,99244.19
2022-10-10T06:21:02.564Z,99242.53
2022-10-10T06:22:06.770Z,99250.38
2022-10-10T06:23:10.012Z,99247.09
2022-10-10T06:24:14.012Z,99249.03
2022-10-10T06:25:38.420Z,99250.72
2022-10-10T06:26:41.219Z,99251.25
2022-10-10T06:27:44.292Z,99253.72
2022-10-10T06:28:51.088Z,99254.41
2022-10-10T06:29:54.202Z,99250.84
2022-10-10T06:31:02.020Z,99252.25
2022-10-10T06:32:05.031Z,99245.13
2022-10-10T06:33:09.157Z,99257.75
2022-10-10T06:34:13.188Z,99255.00
2022-10-10T06:35:16.331Z,99263.34
2022-10-10T06:36:21.238Z,99251.06
2022-10-10T06:37:24.472Z,99247.34
2022-10-10T06:38:28.994Z,99252.47
2022-10-10T06:39:32.172Z,99246.22
2022-10-10T06:40:36.279Z,99246.09
2022-10-10T06:41:39.394Z,99246.09
2022-10-10T06:42:47.472Z,99257.28
2022-10-10T06:43:56.100Z,99254.78
2022-10-10T06:44:59.276Z,99248.00
2022-10-10T06:46:03.469Z,99251.44
2022-10-10T06:47:06.522Z,99254.25
2022-10-10T06:48:11.213Z,99255.31
2022-10-10T06:49:14.275Z,99250.31
2022-10-10T06:50:18.471Z,99251.13
2022-10-10T06:51:21.488Z,99247.75
2022-10-10T06:52:25.913Z,99254.03
2022-10-10T06:53:28.912Z,99252.84
2022-10-10T06:54:33.297Z,99240.22
2022-10-10T06:55:36.292Z,99247.00
2022-10-10T06:56:40.262Z,99245.91
2022-10-10T06:57:43.197Z,99238.66
2022-10-10T06:58:47.893Z,99244.47
2022-10-10T06:59:52.499Z,99242.31
2022-10-10T07:00:58.341Z,99244.50
2022-10-10T07:02:01.316Z,99239.72
2022-10-10T07:03:05.511Z,99248.75
2022-10-10T07:04:11.040Z,99245.88
2022-10-10T07:05:16.602Z,99249.44
2022-10-10T07:06:20.873Z,99249.59
2022-10-10T07:07:24.173Z,99252.34
2022-10-10T07:08:28.703Z,99249.81
2022-10-10T07:09:31.841Z,99245.69
2022-10-10T07:10:36.047Z,99241.78
2022-10-10T07:11:45.434Z,99242.41
2022-10-10T07:12:49.766Z,99240.31
2022-10-10T07:13:54.410Z,99245.91
2022-10-10T07:14:58.826Z,99240.22
2022-10-10T07:16:03.095Z,99239.75
2022-10-10T07:17:06.061Z,99234.91
2022-10-10T07:18:10.182Z,99247.16
2022-10-10T07:19:13.593Z,99248.72
2022-10-10T07:20:17.649Z,99243.22
2022-10-10T07:21:21.950Z,99241.06
2022-10-10T07:22:25.445Z,99233.66
2022-10-10T07:23:29.872Z,99240.16
2022-10-10T07:24:33.001Z,99241.44
2022-10-10T07:25:39.375Z,99236.88
2022-10-10T07:26:43.432Z,99240.97
2022-10-10T07:27:46.413Z,99234.00
2022-10-10T07:28:50.510Z,99235.44
2022-10-10T07:29:53.596Z,99230.25
2022-10-10T07:31:02.776Z,99235.53
2022-10-10T07:32:05.781Z,99237.63
2022-10-10T07:33:09.840Z,99235.72
2022-10-10T07:34:12.814Z,99237.25
2022-10-10T07:35:16.961Z,99242.50
2022-10-10T07:36:19.944Z,99236.16
2022-10-10T07:37:24.053Z,99238.66
2022-10-10T07:38:28.292Z,99234.91
2022-10-10T07:39:31.211Z,99236.47
2022-10-10T07:40:35.218Z,99233.59
2022-10-10T07:41:39.161Z,99240.59
2022-10-10T07:42:42.065Z,99234.81
2022-10-10T07:43:46.153Z,99231.47
2022-10-10T07:44:49.135Z,99226.50
2022-10-10T07:45:53.292Z,99226.63
2022-10-10T07:46:57.679Z,99234.47
2022-10-10T07:48:01.677Z,99230.94
2022-10-10T07:49:04.722Z,99230.94
2022-10-10T07:50:09.864Z,99234.38
2022-10-10T07:51:12.949Z,99232.72
2022-10-10T07:52:17.930Z,99228.41
2022-10-10T07:53:22.238Z,99231.88
2022-10-10T07:54:25.452Z,99236.28
2022-10-10T07:55:29.911Z,99232.97
2022-10-10T07:56:34.144Z,99229.66
2022-10-10T07:57:37.742Z,99243.84
2022-10-10T07:58:41.934Z,99241.38
2022-10-10T07:59:45.962Z,99238.03
2022-10-10T08:00:50.126Z,99227.69
2022-10-10T08:01:53.644Z,99240.78
2022-10-10T08:02:59.192Z,99229.63
2022-10-10T08:04:02.253Z,99237.47
2022-10-10T08:05:06.963Z,99236.66
2022-10-10T08:06:14.019Z,99220.06
2022-10-10T08:07:17.206Z,99234.03
2022-10-10T08:08:21.352Z,99229.47
2022-10-10T08:09:25.756Z,99230.16
2022-10-10T08:10:29.029Z,99230.06
2022-10-10T08:11:33.158Z,99224.53
2022-10-10T08:12:36.544Z,99226.06
2022-10-10T08:13:42.597Z,99233.78
2022-10-10T08:14:46.718Z,99231.88
2022-10-10T08:15:51.397Z,99228.16
2022-10-10T08:16:55.561Z,99225.28
2022-10-10T08:18:01.201Z,99222.38
2022-10-10T08:19:05.536Z,99228.19
2022-10-10T08:20:09.317Z,99226.25
2022-10-10T08:21:14.878Z,99226.00
2022-10-10T08:22:17.881Z,99219.66
2022-10-10T08:23:23.794Z,99221.19
2022-10-10T08:24:27.146Z,99222.59
2022-10-10T08:25:31.278Z,99226.72
2022-10-10T08:26:34.292Z,99223.06
2022-10-10T08:27:38.480Z,99215.03
2022-10-10T08:28:41.757Z,99214.66
2022-10-10T08:29:45.884Z,99216.16
2022-10-10T08:30:49.972Z,99209.81
2022-10-10T08:31:53.119Z,99219.09
2022-10-10T08:32:57.203Z,99205.69
2022-10-10T08:34:02.141Z,99205.41
2022-10-10T08:35:08.131Z,99203.47
2022-10-10T08:36:13.307Z,99201.53
2022-10-10T08:37:17.994Z,99202.09
2022-10-10T08:38:21.288Z,99201.03
2022-10-10T08:39:25.452Z,99202.38
2022-10-10T08:40:30.206Z,99196.88
2022-10-10T08:41:40.864Z,99187.91
2022-10-10T08:42:52.521Z,99187.63
2022-10-10T08:44:01.194Z,99190.81
2022-10-10T08:45:10.624Z,99197.44
2022-10-10T08:46:18.912Z,99194.38
2022-10-10T08:47:25.372Z,99190.66
2022-10-10T08:48:30.677Z,99182.22
2022-10-10T08:49:39.001Z,99195.75
2022-10-10T08:50:44.231Z,99188.28
2022-10-10T08:51:53.884Z,99189.53
2022-10-10T08:52:59.938Z,99192.72
2022-10-10T08:54:05.012Z,99194.09
2022-10-10T08:55:15.278Z,99187.44
2022-10-10T08:56:21.834Z,99185.22
2022-10-10T08:57:29.437Z,99188.25
2022-10-10T08:58:35.289Z,99179.13
2022-10-10T08:59:41.758Z,99189.06
2022-10-10T09:00:48.295Z,99177.31
2022-10-10T09:02:18.278Z,99182.09
2022-10-10T09:03:26.013Z,99175.50
2022-10-10T09:04:32.662Z,99177.84
2022-10-10T09:05:49.858Z,99167.72
2022-10-10T09:07:02.302Z,99175.03
2022-10-10T09:08:17.616Z,99174.31
2022-10-10T09:09:29.476Z,99172.06
2022-10-10T09:10:36.541Z,99165.41
2022-10-10T09:11:50.670Z,99164.81
2022-10-10T09:12:59.706Z,99168.94
2022-10-10T09:14:16.202Z,99168.81
2022-10-10T09:15:22.036Z,99163.41
2022-10-10T09:16:33.823Z,99158.13
2022-10-10T09:17:41.037Z,99157.16
2022-10-10T09:18:55.957Z,99151.63
2022-10-10T09:20:07.939Z,99146.75
2022-10-10T09:21:16.546Z,99151.56
2022-10-10T09:22:25.384Z,99152.78
2022-10-10T09:23:32.835Z,99145.44
2022-10-10T09:24:42.610Z,99147.59
2022-10-10T09:25:52.760Z,99153.22
2022-10-10T09:27:00.831Z,99151.28
2022-10-10T09:28:09.268Z,99149.31
2022-10-10T09:29:28.801Z,99153.47
2022-10-10T09:30:32.891Z,99148.06
2022-10-10T09:31:39.580Z,99151.34
2022-10-10T09:32:43.983Z,99144.97
2022-10-10T09:33:53.678Z,99148.97
2022-10-10T09:35:01.950Z,99149.47
2022-10-10T09:36:08.710Z,99138.81
2022-10-10T09:37:35.284Z,99141.47
2022-10-10T09:38:45.361Z,99147.66
2022-10-10T09:39:53.445Z,99152.81
2022-10-10T09:40:59.411Z,99149.19
2022-10-10T09:42:06.207Z,99139.19
2022-10-10T09:43:12.923Z,99139.56
2022-10-10T09:44:17.036Z,99139.16
2022-10-10T09:45:22.013Z,99141.19
2022-10-10T09:46:26.644Z,99141.22
2022-10-10T09:47:30.774Z,99134.38
2022-10-10T09:48:36.172Z,99132.78
2022-10-10T09:49:39.082Z,99135.78
2022-10-10T09:50:43.944Z,99132.34
2022-10-10T09:51:49.676Z,99130.94
2022-10-10T09:52:54.260Z,99130.63
2022-10-10T09:53:58.262Z,99132.13
2022-10-10T09:55:03.292Z,99138.88
2022-10-10T09:56:08.093Z,99131.78
2022-10-10T09:57:13.489Z,99130.69
2022-10-10T09:58:25.440Z,99126.22
2022-10-10T09:59:40.096Z,99124.13
2022-10-10T10:00:44.344Z,99124.94
2022-10-10T10:02:03.617Z,99119.22
2022-10-10T10:03:15.641Z,99130.41
2022-10-10T10:04:28.647Z,99126.78
2022-10-10T10:05:33.361Z,99124.16
2022-10-10T10:06:37.839Z,99128.44
2022-10-10T10:07:48.929Z,99121.88
2022-10-10T10:08:54.936Z,99127.78
2022-10-10T10:09:59.958Z,99118.94
2022-10-10T10:11:05.178Z,99124.19
2022-10-10T10:12:08.291Z,99118.09
2022-10-10T10:13:15.171Z,99125.84
2022-10-10T10:14:27.087Z,99117.78
2022-10-10T10:15:33.331Z,99114.00
2022-10-10T10:16:40.412Z,99117.13
2022-10-10T10:17:43.478Z,99113.22
2022-10-10T10:18:48.417Z,99112.91
2022-10-10T10:19:52.200Z,99117.84
2022-10-10T10:21:12.062Z,99109.47
2022-10-10T10:22:34.529Z,99109.84
2022-10-10T10:23:42.776Z,99110.66
2022-10-10T10:24:48.241Z,99102.44
2022-10-10T10:25:58.431Z,99103.63
2022-10-10T10:27:11.118Z,99101.31
2022-10-10T10:28:21.358Z,99107.25
2022-10-10T10:29:30.327Z,99103.66
2022-10-10T10:30:34.401Z,99098.38
2022-10-10T10:31:58.112Z,99099.53
2022-10-10T10:33:06.051Z,99098.38
2022-10-10T10:34:24.508Z,99097.91
2022-10-10T10:35:30.603Z,99096.78
2022-10-10T10:36:40.781Z,99097.09
2022-10-10T10:37:53.830Z,99096.75
2022-10-10T10:39:05.181Z,99091.50
2022-10-10T10:40:23.034Z,99088.56
2022-10-10T10:41:31.800Z,99087.56
2022-10-10T10:42:44.001Z,99086.25
2022-10-10T10:44:10.601Z,99079.97
2022-10-10T10:45:16.910Z,99077.03
2022-10-10T10:46:29.191Z,99082.97
2022-10-10T10:47:41.073Z,99079.47
2022-10-10T10:48:47.142Z,99075.00
2022-10-10T10:49:59.240Z,99075.81
2022-10-10T10:51:08.519Z,99077.59
2022-10-10T10:52:21.954Z,99072.13
2022-10-10T10:53:30.829Z,99066.94
2022-10-10T10:54:59.500Z,99064.25
2022-10-10T10:56:13.412Z,99069.84
2022-10-10T10:57:32.951Z,99067.00
2022-10-10T10:59:23.536Z,99058.69
2022-10-10T11:01:19.890Z,99065.47
2022-10-10T11:01:57.010Z,99062.44
2022-10-10T11:03:35.056Z,99058.63
2022-10-10T11:05:19.330Z,99053.38
2022-10-10T11:06:34.041Z,99058.25
2022-10-10T11:07:45.474Z,99061.56
2022-10-10T11:08:56.102Z,99051.97
2022-10-10T11:10:03.306Z,99062.91
2022-10-10T11:11:24.634Z,99060.91
2022-10-10T11:12:46.231Z,99054.78
2022-10-10T11:13:55.503Z,99053.78
2022-10-10T11:15:02.849Z,99052.50
2022-10-10T11:16:20.335Z,99045.09
2022-10-10T11:17:38.974Z,99044.41
2022-10-10T11:18:46.092Z,99052.03
2022-10-10T11:19:57.074Z,99047.94
2022-10-10T11:21:05.650Z,99045.47
2022-10-10T11:22:11.938Z,99043.78
2022-10-10T11:23:20.036Z,99038.34
2022-10-10T11:24:33.822Z,99031.56
2022-10-10T11:25:43.172Z,99042.44
2022-10-10T11:26:51.356Z,99040.09
2022-10-10T11:27:57.858Z,99033.78
2022-10-10T11:29:03.884Z,99038.50
2022-10-10T11:30:14.501Z,99033.81
2022-10-10T11:31:20.909Z,99027.47
2022-10-10T11:32:29.789Z,99029.22
2022-10-10T11:33:37.013Z,99027.53
2022-10-10T11:34:43.819Z,99024.47
2022-10-10T11:35:51.761Z,99025.06
2022-10-10T11:36:56.469Z,99030.25
2022-10-10T11:38:03.739Z,99021.59
2022-10-10T11:39:16.049Z,99020.56
2022-10-10T11:40:34.872Z,99018.56
2022-10-10T11:41:41.427Z,99014.53
2022-10-10T11:42:50.252Z,99018.13
2022-10-10T11:43:57.476Z,99020.22
2022-10-10T11:45:03.868Z,99010.72
2022-10-10T11:46:15.630Z,99015.91
2022-10-10T11:47:24.892Z,99011.34
2022-10-10T11:48:36.843Z,99018.03
2022-10-10T11:49:45.250Z,99017.56
2022-10-10T11:50:53.422Z,99017.47
2022-10-10T11:52:35.400Z,99013.19
2022-10-10T11:53:43.378Z,99002.91
2022-10-10T11:54:51.717Z,99009.75
2022-10-10T11:55:58.918Z,99004.78
2022-10-10T11:57:05.991Z,99007.94
2022-10-10T11:58:28.710Z,99004.31
2022-10-10T11:59:35.172Z,98999.91
2022-10-10T12:00:41.780Z,99002.44
2022-10-10T12:01:49.934Z,98994.34
2022-10-10T12:02:56.560Z,98994.78
2022-10-10T12:04:00.663Z,98998.69
2022-10-10T12:05:06.403Z,98994.47
2022-10-10T12:06:15.480Z,98982.09
2022-10-10T12:07:23.273Z,98994.78
2022-10-10T12:08:31.256Z,98991.69
2022-10-10T12:09:39.088Z,98984.66
2022-10-10T12:10:46.422Z,98986.13
2022-10-10T12:11:55.211Z,98986.63
2022-10-10T12:13:04.759Z,98990.53
2022-10-10T12:14:10.854Z,98990.34
2022-10-10T12:15:27.601Z,98975.22
2022-10-10T12:16:32.051Z,98982.38
2022-10-10T12:17:43.734Z,98979.38
2022-10-10T12:18:51.510Z,98986.94
2022-10-10T12:19:55.915Z,98982.84
2022-10-10T12:21:08.268Z,98985.88
2022-10-10T12:22:23.980Z,98986.53
2022-10-10T12:23:30.260Z,98982.50
2022-10-10T12:24:38.640Z,98978.03
2022-10-10T12:25:46.325Z,98978.09
2022-10-10T12:27:11.859Z,98981.81
2022-10-10T12:28:28.345Z,98974.44
2022-10-10T12:29:46.817Z,98972.59
2022-10-10T12:31:31.515Z,98970.16
2022-10-10T12:32:42.410Z,98971.19
2022-10-10T12:34:15.413Z,98961.75
2022-10-10T12:35:38.691Z,98965.28
2022-10-10T12:37:18.517Z,98963.22
2022-10-10T12:38:24.301Z,98957.09
2022-10-10T12:39:36.090Z,98962.78
2022-10-10T12:41:11.783Z,98957.13
2022-10-10T12:42:36.473Z,98956.22
2022-10-10T12:43:46.069Z,98951.78
2022-10-10T12:44:51.853Z,98949.38
2022-10-10T12:46:08.509Z,98951.06
2022-10-10T12:47:59.658Z,98950.06
2022-10-10T12:49:01.410Z,98949.44
2022-10-10T12:50:08.211Z,98950.06
2022-10-10T12:51:20.892Z,98947.00
2022-10-10T12:52:27.931Z,98942.09
2022-10-10T12:53:33.825Z,98935.72
2022-10-10T12:54:41.676Z,98938.16
2022-10-10T12:55:47.302Z,98940.03
2022-10-10T12:56:53.476Z,98940.41
2022-10-10T12:57:59.920Z,98937.09
2022-10-10T12:59:03.510Z,98937.53
2022-10-10T13:00:17.874Z,98935.06
2022-10-10T13:01:25.763Z,98926.47
2022-10-10T13:02:30.204Z,98937.94
2022-10-10T13:03:35.443Z,98935.03
2022-10-10T13:04:44.190Z,98930.66
2022-10-10T13:05:48.238Z,98933.84
2022-10-10T13:06:56.277Z,98923.28